sensor_id;sensor_type;location;lat;lon;timestamp;P1;durP1;ratioP1;P2;durP2;ratioP2
79149;SDS011;68563;45.644;13.782;2024-01-30T00:00:53;7.53;;;3.60;;
79149;SDS011;68563;45.644;13.782;2024-01-30T00:03:18;8.73;;;4.88;;
79149;SDS011;68563;45.644;13.782;2024-01-30T00:05:44;8.23;;;4.30;;
79149;SDS011;68563;45.644;13.782;2024-01-30T00:08:09;11.40;;;4.90;;
79149;SDS011;68563;45.644;13.782;2024-01-30T00:10:34;8.25;;;4.75;;
79149;SDS011;68563;45.644;13.782;2024-01-30T00:13:00;7.00;;;3.50;;
79149;SDS011;68563;45.644;13.782;2024-01-30T00:15:25;6.85;;;3.58;;
79149;SDS011;68563;45.644;13.782;2024-01-30T00:17:50;6.97;;;3.95;;
79149;SDS011;68563;45.644;13.782;2024-01-30T00:20:17;9.48;;;4.85;;
79149;SDS011;68563;45.644;13.782;2024-01-30T00:22:43;9.23;;;5.03;;
79149;SDS011;68563;45.644;13.782;2024-01-30T00:25:08;9.80;;;4.72;;
79149;SDS011;68563;45.644;13.782;2024-01-30T00:27:33;7.03;;;4.00;;
79149;SDS011;68563;45.644;13.782;2024-01-30T00:29:59;9.50;;;5.15;;
79149;SDS011;68563;45.644;13.782;2024-01-30T00:32:24;11.43;;;6.40;;
79149;SDS011;68563;45.644;13.782;2024-01-30T00:34:49;14.80;;;7.05;;
79149;SDS011;68563;45.644;13.782;2024-01-30T00:37:15;12.68;;;6.68;;
79149;SDS011;68563;45.644;13.782;2024-01-30T00:39:40;12.93;;;7.25;;
79149;SDS011;68563;45.644;13.782;2024-01-30T00:42:06;16.42;;;7.10;;
79149;SDS011;68563;45.644;13.782;2024-01-30T00:44:31;15.25;;;8.05;;
79149;SDS011;68563;45.644;13.782;2024-01-30T00:47:00;14.57;;;7.28;;
79149;SDS011;68563;45.644;13.782;2024-01-30T00:49:25;16.27;;;7.20;;
79149;SDS011;68563;45.644;13.782;2024-01-30T00:51:51;12.50;;;6.97;;
79149;SDS011;68563;45.644;13.782;2024-01-30T00:54:16;15.38;;;7.75;;
79149;SDS011;68563;45.644;13.782;2024-01-30T00:56:42;14.48;;;7.38;;
79149;SDS011;68563;45.644;13.782;2024-01-30T00:59:07;14.68;;;7.55;;
79149;SDS011;68563;45.644;13.782;2024-01-30T01:01:33;14.15;;;7.68;;
79149;SDS011;68563;45.644;13.782;2024-01-30T01:03:58;16.17;;;7.68;;
79149;SDS011;68563;45.644;13.782;2024-01-30T01:06:24;12.63;;;7.45;;
79149;SDS011;68563;45.644;13.782;2024-01-30T01:08:49;12.57;;;7.03;;
79149;SDS011;68563;45.644;13.782;2024-01-30T01:11:15;15.48;;;7.07;;
79149;SDS011;68563;45.644;13.782;2024-01-30T01:13:40;13.70;;;6.80;;
79149;SDS011;68563;45.644;13.782;2024-01-30T01:16:05;13.02;;;6.90;;
79149;SDS011;68563;45.644;13.782;2024-01-30T01:18:31;13.40;;;6.68;;
79149;SDS011;68563;45.644;13.782;2024-01-30T01:20:56;13.88;;;7.00;;
79149;SDS011;68563;45.644;13.782;2024-01-30T01:23:22;12.93;;;7.88;;
79149;SDS011;68563;45.644;13.782;2024-01-30T01:25:47;12.85;;;7.00;;
79149;SDS011;68563;45.644;13.782;2024-01-30T01:28:12;12.88;;;6.70;;
79149;SDS011;68563;45.644;13.782;2024-01-30T01:30:38;14.35;;;7.75;;
79149;SDS011;68563;45.644;13.782;2024-01-30T01:33:04;15.77;;;7.15;;
79149;SDS011;68563;45.644;13.782;2024-01-30T01:35:29;12.73;;;6.72;;
79149;SDS011;68563;45.644;13.782;2024-01-30T01:37:55;10.75;;;6.00;;
79149;SDS011;68563;45.644;13.782;2024-01-30T01:40:21;10.90;;;6.03;;
79149;SDS011;68563;45.644;13.782;2024-01-30T01:42:50;12.07;;;6.63;;
79149;SDS011;68563;45.644;13.782;2024-01-30T01:45:20;10.15;;;5.95;;
79149;SDS011;68563;45.644;13.782;2024-01-30T01:47:54;11.55;;;5.63;;
79149;SDS011;68563;45.644;13.782;2024-01-30T01:50:20;14.07;;;6.65;;
79149;SDS011;68563;45.644;13.782;2024-01-30T01:52:47;9.25;;;5.50;;
79149;SDS011;68563;45.644;13.782;2024-01-30T01:55:13;14.27;;;5.72;;
79149;SDS011;68563;45.644;13.782;2024-01-30T01:57:39;10.27;;;5.53;;
79149;SDS011;68563;45.644;13.782;2024-01-30T02:00:05;11.77;;;5.93;;
79149;SDS011;68563;45.644;13.782;2024-01-30T02:02:33;13.07;;;6.40;;
79149;SDS011;68563;45.644;13.782;2024-01-30T02:05:00;12.43;;;6.25;;
79149;SDS011;68563;45.644;13.782;2024-01-30T02:07:26;10.40;;;5.72;;
79149;SDS011;68563;45.644;13.782;2024-01-30T02:09:53;11.75;;;6.13;;
79149;SDS011;68563;45.644;13.782;2024-01-30T02:12:18;11.88;;;5.95;;
79149;SDS011;68563;45.644;13.782;2024-01-30T02:14:44;9.55;;;5.50;;
79149;SDS011;68563;45.644;13.782;2024-01-30T02:17:11;13.15;;;6.25;;
79149;SDS011;68563;45.644;13.782;2024-01-30T02:19:37;9.82;;;5.70;;
79149;SDS011;68563;45.644;13.782;2024-01-30T02:22:02;11.88;;;5.90;;
79149;SDS011;68563;45.644;13.782;2024-01-30T02:24:28;11.48;;;5.72;;
79149;SDS011;68563;45.644;13.782;2024-01-30T02:26:53;12.60;;;6.50;;
79149;SDS011;68563;45.644;13.782;2024-01-30T02:29:19;11.02;;;5.80;;
79149;SDS011;68563;45.644;13.782;2024-01-30T02:31:44;11.43;;;6.50;;
79149;SDS011;68563;45.644;13.782;2024-01-30T02:34:11;11.90;;;6.05;;
79149;SDS011;68563;45.644;13.782;2024-01-30T02:36:36;10.02;;;5.70;;
79149;SDS011;68563;45.644;13.782;2024-01-30T02:39:01;12.15;;;6.60;;
79149;SDS011;68563;45.644;13.782;2024-01-30T02:41:27;13.40;;;5.85;;
79149;SDS011;68563;45.644;13.782;2024-01-30T02:43:52;13.80;;;6.10;;
79149;SDS011;68563;45.644;13.782;2024-01-30T02:46:18;10.02;;;6.03;;
79149;SDS011;68563;45.644;13.782;2024-01-30T02:48:43;10.85;;;6.13;;
79149;SDS011;68563;45.644;13.782;2024-01-30T02:51:09;10.52;;;6.32;;
79149;SDS011;68563;45.644;13.782;2024-01-30T02:53:34;12.40;;;6.35;;
79149;SDS011;68563;45.644;13.782;2024-01-30T02:55:59;12.13;;;5.85;;
79149;SDS011;68563;45.644;13.782;2024-01-30T02:58:25;11.27;;;7.00;;
79149;SDS011;68563;45.644;13.782;2024-01-30T03:00:50;9.55;;;5.80;;
79149;SDS011;68563;45.644;13.782;2024-01-30T03:03:16;11.65;;;5.90;;
79149;SDS011;68563;45.644;13.782;2024-01-30T03:05:41;10.63;;;5.85;;
79149;SDS011;68563;45.644;13.782;2024-01-30T03:08:07;8.73;;;5.53;;
79149;SDS011;68563;45.644;13.782;2024-01-30T03:10:32;11.70;;;6.07;;
79149;SDS011;68563;45.644;13.782;2024-01-30T03:12:57;10.00;;;6.13;;
79149;SDS011;68563;45.644;13.782;2024-01-30T03:15:23;10.23;;;5.95;;
79149;SDS011;68563;45.644;13.782;2024-01-30T03:17:48;13.20;;;6.55;;
79149;SDS011;68563;45.644;13.782;2024-01-30T03:20:13;10.50;;;5.78;;
79149;SDS011;68563;45.644;13.782;2024-01-30T03:22:39;10.90;;;5.68;;
79149;SDS011;68563;45.644;13.782;2024-01-30T03:25:04;10.70;;;5.80;;
79149;SDS011;68563;45.644;13.782;2024-01-30T03:27:30;12.85;;;5.90;;
79149;SDS011;68563;45.644;13.782;2024-01-30T03:29:55;11.60;;;5.78;;
79149;SDS011;68563;45.644;13.782;2024-01-30T03:32:20;10.95;;;5.95;;
79149;SDS011;68563;45.644;13.782;2024-01-30T03:34:46;8.80;;;5.80;;
79149;SDS011;68563;45.644;13.782;2024-01-30T03:37:11;9.25;;;5.22;;
79149;SDS011;68563;45.644;13.782;2024-01-30T03:39:37;11.27;;;5.68;;
79149;SDS011;68563;45.644;13.782;2024-01-30T03:42:02;9.05;;;5.10;;
79149;SDS011;68563;45.644;13.782;2024-01-30T03:44:28;7.80;;;4.93;;
79149;SDS011;68563;45.644;13.782;2024-01-30T03:46:53;10.20;;;5.70;;
79149;SDS011;68563;45.644;13.782;2024-01-30T03:49:18;9.73;;;5.25;;
79149;SDS011;68563;45.644;13.782;2024-01-30T03:51:44;9.15;;;5.50;;
79149;SDS011;68563;45.644;13.782;2024-01-30T03:54:09;10.48;;;4.90;;
79149;SDS011;68563;45.644;13.782;2024-01-30T03:56:35;8.35;;;4.30;;
79149;SDS011;68563;45.644;13.782;2024-01-30T03:59:00;7.93;;;4.28;;
79149;SDS011;68563;45.644;13.782;2024-01-30T04:01:27;8.85;;;4.82;;
79149;SDS011;68563;45.644;13.782;2024-01-30T04:03:53;9.15;;;5.22;;
79149;SDS011;68563;45.644;13.782;2024-01-30T04:06:18;8.70;;;4.50;;
79149;SDS011;68563;45.644;13.782;2024-01-30T04:08:43;8.32;;;4.75;;
79149;SDS011;68563;45.644;13.782;2024-01-30T04:11:09;8.40;;;4.53;;
79149;SDS011;68563;45.644;13.782;2024-01-30T04:13:34;8.02;;;4.35;;
79149;SDS011;68563;45.644;13.782;2024-01-30T04:16:01;8.68;;;3.90;;
79149;SDS011;68563;45.644;13.782;2024-01-30T04:18:27;7.05;;;3.92;;
79149;SDS011;68563;45.644;13.782;2024-01-30T04:20:52;8.55;;;4.72;;
79149;SDS011;68563;45.644;13.782;2024-01-30T04:23:17;8.32;;;4.70;;
79149;SDS011;68563;45.644;13.782;2024-01-30T04:25:43;6.85;;;3.83;;
79149;SDS011;68563;45.644;13.782;2024-01-30T04:28:08;6.43;;;4.07;;
79149;SDS011;68563;45.644;13.782;2024-01-30T04:30:34;7.60;;;3.95;;
79149;SDS011;68563;45.644;13.782;2024-01-30T04:33:00;6.93;;;3.80;;
79149;SDS011;68563;45.644;13.782;2024-01-30T04:35:25;8.18;;;4.22;;
79149;SDS011;68563;45.644;13.782;2024-01-30T04:37:52;9.60;;;4.38;;
79149;SDS011;68563;45.644;13.782;2024-01-30T04:40:18;8.40;;;4.10;;
79149;SDS011;68563;45.644;13.782;2024-01-30T04:42:43;8.35;;;3.95;;
79149;SDS011;68563;45.644;13.782;2024-01-30T04:45:09;6.80;;;3.60;;
79149;SDS011;68563;45.644;13.782;2024-01-30T04:47:34;7.03;;;4.13;;
79149;SDS011;68563;45.644;13.782;2024-01-30T04:50:00;8.75;;;4.00;;
79149;SDS011;68563;45.644;13.782;2024-01-30T04:52:26;9.30;;;3.80;;
79149;SDS011;68563;45.644;13.782;2024-01-30T04:54:51;8.15;;;4.13;;
79149;SDS011;68563;45.644;13.782;2024-01-30T04:57:17;6.55;;;3.65;;
79149;SDS011;68563;45.644;13.782;2024-01-30T04:59:42;7.88;;;4.30;;
79149;SDS011;68563;45.644;13.782;2024-01-30T05:02:07;9.38;;;3.97;;
79149;SDS011;68563;45.644;13.782;2024-01-30T05:04:33;6.65;;;3.67;;
79149;SDS011;68563;45.644;13.782;2024-01-30T05:06:58;8.45;;;4.32;;
79149;SDS011;68563;45.644;13.782;2024-01-30T05:09:23;7.60;;;4.32;;
79149;SDS011;68563;45.644;13.782;2024-01-30T05:11:49;8.27;;;4.20;;
79149;SDS011;68563;45.644;13.782;2024-01-30T05:14:14;9.55;;;4.43;;
79149;SDS011;68563;45.644;13.782;2024-01-30T05:16:40;8.48;;;4.30;;
79149;SDS011;68563;45.644;13.782;2024-01-30T05:19:06;9.15;;;4.88;;
79149;SDS011;68563;45.644;13.782;2024-01-30T05:21:31;8.75;;;4.93;;
79149;SDS011;68563;45.644;13.782;2024-01-30T05:23:57;10.77;;;4.72;;
79149;SDS011;68563;45.644;13.782;2024-01-30T05:26:22;7.70;;;4.03;;
79149;SDS011;68563;45.644;13.782;2024-01-30T05:28:48;7.95;;;4.20;;
79149;SDS011;68563;45.644;13.782;2024-01-30T05:31:13;8.15;;;3.83;;
79149;SDS011;68563;45.644;13.782;2024-01-30T05:33:39;9.68;;;4.63;;
79149;SDS011;68563;45.644;13.782;2024-01-30T05:36:05;6.70;;;3.88;;
79149;SDS011;68563;45.644;13.782;2024-01-30T05:38:31;8.18;;;4.30;;
79149;SDS011;68563;45.644;13.782;2024-01-30T05:40:57;8.88;;;4.65;;
79149;SDS011;68563;45.644;13.782;2024-01-30T05:43:25;9.13;;;4.90;;
79149;SDS011;68563;45.644;13.782;2024-01-30T05:45:51;7.70;;;4.22;;
79149;SDS011;68563;45.644;13.782;2024-01-30T05:48:17;10.68;;;5.10;;
79149;SDS011;68563;45.644;13.782;2024-01-30T05:50:43;9.65;;;5.32;;
79149;SDS011;68563;45.644;13.782;2024-01-30T05:53:08;7.90;;;4.35;;
79149;SDS011;68563;45.644;13.782;2024-01-30T05:55:33;7.32;;;4.32;;
79149;SDS011;68563;45.644;13.782;2024-01-30T05:57:59;12.25;;;5.38;;
79149;SDS011;68563;45.644;13.782;2024-01-30T06:00:24;8.68;;;4.85;;
79149;SDS011;68563;45.644;13.782;2024-01-30T06:02:50;9.48;;;5.15;;
79149;SDS011;68563;45.644;13.782;2024-01-30T06:05:15;8.20;;;4.80;;
79149;SDS011;68563;45.644;13.782;2024-01-30T06:07:40;14.25;;;4.88;;
79149;SDS011;68563;45.644;13.782;2024-01-30T06:10:06;9.57;;;5.38;;
79149;SDS011;68563;45.644;13.782;2024-01-30T06:12:32;15.55;;;4.75;;
79149;SDS011;68563;45.644;13.782;2024-01-30T06:14:58;12.27;;;5.05;;
79149;SDS011;68563;45.644;13.782;2024-01-30T06:17:23;12.63;;;5.65;;
79149;SDS011;68563;45.644;13.782;2024-01-30T06:19:49;10.60;;;5.30;;
79149;SDS011;68563;45.644;13.782;2024-01-30T06:22:15;10.70;;;5.50;;
79149;SDS011;68563;45.644;13.782;2024-01-30T06:24:41;8.85;;;5.30;;
79149;SDS011;68563;45.644;13.782;2024-01-30T06:27:06;9.60;;;5.57;;
79149;SDS011;68563;45.644;13.782;2024-01-30T06:29:31;12.02;;;5.32;;
79149;SDS011;68563;45.644;13.782;2024-01-30T06:31:57;10.82;;;5.95;;
79149;SDS011;68563;45.644;13.782;2024-01-30T06:34:22;13.75;;;6.50;;
79149;SDS011;68563;45.644;13.782;2024-01-30T06:36:47;12.13;;;5.55;;
79149;SDS011;68563;45.644;13.782;2024-01-30T06:39:13;9.57;;;5.07;;
79149;SDS011;68563;45.644;13.782;2024-01-30T06:41:38;10.85;;;5.60;;
79149;SDS011;68563;45.644;13.782;2024-01-30T06:44:04;15.55;;;5.28;;
79149;SDS011;68563;45.644;13.782;2024-01-30T06:46:31;13.15;;;6.43;;
79149;SDS011;68563;45.644;13.782;2024-01-30T06:48:57;9.50;;;5.05;;
79149;SDS011;68563;45.644;13.782;2024-01-30T06:51:23;11.32;;;5.85;;
79149;SDS011;68563;45.644;13.782;2024-01-30T06:53:48;13.05;;;5.93;;
79149;SDS011;68563;45.644;13.782;2024-01-30T06:56:13;11.32;;;5.85;;
79149;SDS011;68563;45.644;13.782;2024-01-30T06:58:39;12.75;;;5.45;;
79149;SDS011;68563;45.644;13.782;2024-01-30T07:01:04;12.57;;;4.93;;
79149;SDS011;68563;45.644;13.782;2024-01-30T07:03:31;13.27;;;6.30;;
79149;SDS011;68563;45.644;13.782;2024-01-30T07:05:56;13.43;;;5.93;;
79149;SDS011;68563;45.644;13.782;2024-01-30T07:08:22;9.20;;;5.18;;
79149;SDS011;68563;45.644;13.782;2024-01-30T07:10:49;13.25;;;6.55;;
79149;SDS011;68563;45.644;13.782;2024-01-30T07:13:14;18.73;;;7.35;;
79149;SDS011;68563;45.644;13.782;2024-01-30T07:15:41;17.15;;;6.13;;
79149;SDS011;68563;45.644;13.782;2024-01-30T07:18:07;14.57;;;6.55;;
79149;SDS011;68563;45.644;13.782;2024-01-30T07:20:32;12.18;;;6.78;;
79149;SDS011;68563;45.644;13.782;2024-01-30T07:22:58;13.25;;;6.28;;
79149;SDS011;68563;45.644;13.782;2024-01-30T07:25:24;15.27;;;7.35;;
79149;SDS011;68563;45.644;13.782;2024-01-30T07:27:52;15.50;;;7.07;;
79149;SDS011;68563;45.644;13.782;2024-01-30T07:30:18;11.50;;;6.50;;
79149;SDS011;68563;45.644;13.782;2024-01-30T07:32:44;16.48;;;7.15;;
79149;SDS011;68563;45.644;13.782;2024-01-30T07:35:10;14.40;;;6.90;;
79149;SDS011;68563;45.644;13.782;2024-01-30T07:37:36;13.98;;;6.38;;
79149;SDS011;68563;45.644;13.782;2024-01-30T07:40:02;14.32;;;7.45;;
79149;SDS011;68563;45.644;13.782;2024-01-30T07:42:28;13.60;;;7.63;;
79149;SDS011;68563;45.644;13.782;2024-01-30T07:44:53;66.22;;;12.80;;
79149;SDS011;68563;45.644;13.782;2024-01-30T07:47:19;173.95;;;20.80;;
79149;SDS011;68563;45.644;13.782;2024-01-30T07:49:44;149.20;;;21.90;;
79149;SDS011;68563;45.644;13.782;2024-01-30T07:52:09;155.57;;;20.25;;
79149;SDS011;68563;45.644;13.782;2024-01-30T07:54:56;191.60;;;22.90;;
79149;SDS011;68563;45.644;13.782;2024-01-30T07:57:21;165.85;;;21.58;;
79149;SDS011;68563;45.644;13.782;2024-01-30T07:59:46;208.98;;;25.40;;
79149;SDS011;68563;45.644;13.782;2024-01-30T08:02:12;123.97;;;19.27;;
79149;SDS011;68563;45.644;13.782;2024-01-30T08:04:38;104.18;;;14.98;;
79149;SDS011;68563;45.644;13.782;2024-01-30T08:07:03;75.22;;;13.43;;
79149;SDS011;68563;45.644;13.782;2024-01-30T08:09:29;64.82;;;11.52;;
79149;SDS011;68563;45.644;13.782;2024-01-30T08:11:54;20.40;;;8.02;;
79149;SDS011;68563;45.644;13.782;2024-01-30T08:14:19;16.77;;;7.40;;
79149;SDS011;68563;45.644;13.782;2024-01-30T08:16:45;18.10;;;7.72;;
79149;SDS011;68563;45.644;13.782;2024-01-30T08:19:11;18.67;;;7.32;;
79149;SDS011;68563;45.644;13.782;2024-01-30T08:21:36;14.07;;;7.30;;
79149;SDS011;68563;45.644;13.782;2024-01-30T08:24:03;12.15;;;7.10;;
79149;SDS011;68563;45.644;13.782;2024-01-30T08:26:33;12.40;;;7.05;;
79149;SDS011;68563;45.644;13.782;2024-01-30T08:29:00;10.45;;;7.10;;
79149;SDS011;68563;45.644;13.782;2024-01-30T08:31:26;15.95;;;7.70;;
79149;SDS011;68563;45.644;13.782;2024-01-30T08:33:51;11.88;;;7.15;;
79149;SDS011;68563;45.644;13.782;2024-01-30T08:36:17;11.75;;;7.32;;
79149;SDS011;68563;45.644;13.782;2024-01-30T08:38:43;11.00;;;7.00;;
79149;SDS011;68563;45.644;13.782;2024-01-30T08:41:08;14.45;;;7.72;;
79149;SDS011;68563;45.644;13.782;2024-01-30T08:43:34;13.57;;;8.27;;
79149;SDS011;68563;45.644;13.782;2024-01-30T08:45:59;11.13;;;7.20;;
79149;SDS011;68563;45.644;13.782;2024-01-30T08:48:25;11.68;;;7.50;;
79149;SDS011;68563;45.644;13.782;2024-01-30T08:50:51;13.25;;;7.60;;
79149;SDS011;68563;45.644;13.782;2024-01-30T08:53:16;15.18;;;7.45;;
79149;SDS011;68563;45.644;13.782;2024-01-30T08:55:42;13.70;;;7.43;;
79149;SDS011;68563;45.644;13.782;2024-01-30T08:58:07;14.27;;;7.18;;
79149;SDS011;68563;45.644;13.782;2024-01-30T09:00:33;14.95;;;8.07;;
79149;SDS011;68563;45.644;13.782;2024-01-30T09:02:58;12.35;;;7.03;;
79149;SDS011;68563;45.644;13.782;2024-01-30T09:05:23;13.80;;;8.05;;
79149;SDS011;68563;45.644;13.782;2024-01-30T09:07:49;15.50;;;7.50;;
79149;SDS011;68563;45.644;13.782;2024-01-30T09:10:14;13.68;;;7.32;;
79149;SDS011;68563;45.644;13.782;2024-01-30T09:12:40;13.93;;;7.07;;
79149;SDS011;68563;45.644;13.782;2024-01-30T09:15:06;13.32;;;6.55;;
79149;SDS011;68563;45.644;13.782;2024-01-30T09:17:32;14.65;;;6.82;;
79149;SDS011;68563;45.644;13.782;2024-01-30T09:19:58;14.93;;;6.80;;
79149;SDS011;68563;45.644;13.782;2024-01-30T09:22:23;11.63;;;6.60;;
79149;SDS011;68563;45.644;13.782;2024-01-30T09:24:49;12.75;;;6.63;;
79149;SDS011;68563;45.644;13.782;2024-01-30T09:27:15;12.52;;;7.22;;
79149;SDS011;68563;45.644;13.782;2024-01-30T09:29:40;11.77;;;7.25;;
79149;SDS011;68563;45.644;13.782;2024-01-30T09:32:06;12.23;;;7.70;;
79149;SDS011;68563;45.644;13.782;2024-01-30T09:34:31;15.13;;;9.02;;
79149;SDS011;68563;45.644;13.782;2024-01-30T09:36:58;14.68;;;8.02;;
79149;SDS011;68563;45.644;13.782;2024-01-30T09:39:25;14.35;;;8.00;;
79149;SDS011;68563;45.644;13.782;2024-01-30T09:42:01;13.85;;;8.10;;
79149;SDS011;68563;45.644;13.782;2024-01-30T09:44:31;13.45;;;7.70;;
79149;SDS011;68563;45.644;13.782;2024-01-30T09:46:59;10.95;;;7.03;;
79149;SDS011;68563;45.644;13.782;2024-01-30T09:49:29;13.52;;;7.25;;
79149;SDS011;68563;45.644;13.782;2024-01-30T09:51:56;12.05;;;6.68;;
79149;SDS011;68563;45.644;13.782;2024-01-30T09:54:22;11.82;;;6.72;;
79149;SDS011;68563;45.644;13.782;2024-01-30T09:56:48;10.38;;;6.82;;
79149;SDS011;68563;45.644;13.782;2024-01-30T09:59:13;12.98;;;6.95;;
79149;SDS011;68563;45.644;13.782;2024-01-30T10:01:39;12.48;;;7.15;;
79149;SDS011;68563;45.644;13.782;2024-01-30T10:04:06;11.13;;;6.32;;
79149;SDS011;68563;45.644;13.782;2024-01-30T10:06:32;12.85;;;7.03;;
79149;SDS011;68563;45.644;13.782;2024-01-30T10:08:57;12.32;;;6.25;;
79149;SDS011;68563;45.644;13.782;2024-01-30T10:11:23;12.10;;;7.30;;
79149;SDS011;68563;45.644;13.782;2024-01-30T10:13:48;12.20;;;7.43;;
79149;SDS011;68563;45.644;13.782;2024-01-30T10:16:14;12.32;;;6.88;;
79149;SDS011;68563;45.644;13.782;2024-01-30T10:18:41;22.77;;;11.40;;
79149;SDS011;68563;45.644;13.782;2024-01-30T10:21:08;16.02;;;9.52;;
79149;SDS011;68563;45.644;13.782;2024-01-30T10:23:33;16.83;;;9.05;;
79149;SDS011;68563;45.644;13.782;2024-01-30T10:25:59;18.23;;;9.70;;
79149;SDS011;68563;45.644;13.782;2024-01-30T10:28:26;16.63;;;9.20;;
79149;SDS011;68563;45.644;13.782;2024-01-30T10:30:57;17.45;;;8.68;;
79149;SDS011;68563;45.644;13.782;2024-01-30T10:33:27;17.17;;;9.15;;
79149;SDS011;68563;45.644;13.782;2024-01-30T10:35:54;12.05;;;7.20;;
79149;SDS011;68563;45.644;13.782;2024-01-30T10:38:25;11.27;;;6.72;;
79149;SDS011;68563;45.644;13.782;2024-01-30T10:40:56;11.13;;;6.10;;
79149;SDS011;68563;45.644;13.782;2024-01-30T10:43:22;11.20;;;6.50;;
79149;SDS011;68563;45.644;13.782;2024-01-30T10:45:55;9.15;;;5.93;;
79149;SDS011;68563;45.644;13.782;2024-01-30T10:48:26;10.32;;;6.38;;
79149;SDS011;68563;45.644;13.782;2024-01-30T10:50:56;12.43;;;6.88;;
79149;SDS011;68563;45.644;13.782;2024-01-30T10:53:24;13.02;;;6.20;;
79149;SDS011;68563;45.644;13.782;2024-01-30T10:55:51;10.43;;;6.80;;
79149;SDS011;68563;45.644;13.782;2024-01-30T10:58:18;10.18;;;6.70;;
79149;SDS011;68563;45.644;13.782;2024-01-30T11:00:45;11.35;;;6.18;;
79149;SDS011;68563;45.644;13.782;2024-01-30T11:03:11;11.38;;;6.50;;
79149;SDS011;68563;45.644;13.782;2024-01-30T11:05:40;12.15;;;6.30;;
79149;SDS011;68563;45.644;13.782;2024-01-30T11:08:15;12.52;;;7.00;;
79149;SDS011;68563;45.644;13.782;2024-01-30T11:10:48;17.08;;;7.85;;
79149;SDS011;68563;45.644;13.782;2024-01-30T11:13:14;13.57;;;7.20;;
79149;SDS011;68563;45.644;13.782;2024-01-30T11:15:40;9.80;;;6.60;;
79149;SDS011;68563;45.644;13.782;2024-01-30T11:18:06;11.02;;;6.13;;
79149;SDS011;68563;45.644;13.782;2024-01-30T11:20:31;10.20;;;5.78;;
79149;SDS011;68563;45.644;13.782;2024-01-30T11:22:57;12.48;;;5.95;;
79149;SDS011;68563;45.644;13.782;2024-01-30T11:25:24;10.68;;;5.88;;
79149;SDS011;68563;45.644;13.782;2024-01-30T11:27:50;9.45;;;5.50;;
79149;SDS011;68563;45.644;13.782;2024-01-30T11:35:33;9.93;;;5.55;;
79149;SDS011;68563;45.644;13.782;2024-01-30T11:38:00;10.02;;;5.60;;
79149;SDS011;68563;45.644;13.782;2024-01-30T11:40:29;9.35;;;5.93;;
79149;SDS011;68563;45.644;13.782;2024-01-30T11:42:56;8.80;;;5.50;;
79149;SDS011;68563;45.644;13.782;2024-01-30T11:45:24;12.55;;;5.90;;
79149;SDS011;68563;45.644;13.782;2024-01-30T11:47:49;8.55;;;5.50;;
79149;SDS011;68563;45.644;13.782;2024-01-30T11:50:14;10.48;;;5.68;;
79149;SDS011;68563;45.644;13.782;2024-01-30T11:52:40;10.05;;;5.28;;
79149;SDS011;68563;45.644;13.782;2024-01-30T11:55:06;8.93;;;5.57;;
79149;SDS011;68563;45.644;13.782;2024-01-30T11:57:33;11.00;;;5.22;;
79149;SDS011;68563;45.644;13.782;2024-01-30T12:00:00;8.70;;;5.50;;
79149;SDS011;68563;45.644;13.782;2024-01-30T12:02:26;10.63;;;5.68;;
79149;SDS011;68563;45.644;13.782;2024-01-30T12:04:51;9.73;;;5.43;;
79149;SDS011;68563;45.644;13.782;2024-01-30T12:07:17;8.55;;;4.95;;
79149;SDS011;68563;45.644;13.782;2024-01-30T12:09:42;9.30;;;5.47;;
79149;SDS011;68563;45.644;13.782;2024-01-30T12:12:16;10.60;;;5.38;;
79149;SDS011;68563;45.644;13.782;2024-01-30T12:14:42;8.90;;;5.75;;
79149;SDS011;68563;45.644;13.782;2024-01-30T12:17:07;9.30;;;5.65;;
79149;SDS011;68563;45.644;13.782;2024-01-30T12:19:34;10.13;;;5.93;;
79149;SDS011;68563;45.644;13.782;2024-01-30T12:21:59;10.45;;;5.80;;
79149;SDS011;68563;45.644;13.782;2024-01-30T12:24:25;8.75;;;5.25;;
79149;SDS011;68563;45.644;13.782;2024-01-30T12:26:52;8.65;;;5.43;;
79149;SDS011;68563;45.644;13.782;2024-01-30T12:29:18;12.35;;;5.95;;
79149;SDS011;68563;45.644;13.782;2024-01-30T12:31:46;9.40;;;5.85;;
79149;SDS011;68563;45.644;13.782;2024-01-30T12:34:13;9.27;;;5.95;;
79149;SDS011;68563;45.644;13.782;2024-01-30T12:36:41;9.88;;;5.95;;
79149;SDS011;68563;45.644;13.782;2024-01-30T12:39:10;11.23;;;6.38;;
79149;SDS011;68563;45.644;13.782;2024-01-30T12:41:36;11.32;;;5.90;;
79149;SDS011;68563;45.644;13.782;2024-01-30T12:44:02;10.38;;;5.72;;
79149;SDS011;68563;45.644;13.782;2024-01-30T12:46:28;10.43;;;5.75;;
79149;SDS011;68563;45.644;13.782;2024-01-30T12:48:54;9.65;;;5.53;;
79149;SDS011;68563;45.644;13.782;2024-01-30T12:51:19;8.57;;;5.30;;
79149;SDS011;68563;45.644;13.782;2024-01-30T12:53:45;9.93;;;5.28;;
79149;SDS011;68563;45.644;13.782;2024-01-30T12:56:12;10.93;;;5.70;;
79149;SDS011;68563;45.644;13.782;2024-01-30T12:58:38;9.45;;;6.00;;
79149;SDS011;68563;45.644;13.782;2024-01-30T13:01:03;10.25;;;5.68;;
79149;SDS011;68563;45.644;13.782;2024-01-30T13:03:29;13.10;;;6.57;;
79149;SDS011;68563;45.644;13.782;2024-01-30T13:05:54;9.75;;;5.75;;
79149;SDS011;68563;45.644;13.782;2024-01-30T13:08:21;9.70;;;5.72;;
79149;SDS011;68563;45.644;13.782;2024-01-30T13:10:46;9.60;;;6.20;;
79149;SDS011;68563;45.644;13.782;2024-01-30T13:13:12;11.57;;;6.15;;
79149;SDS011;68563;45.644;13.782;2024-01-30T13:15:37;9.70;;;6.38;;
79149;SDS011;68563;45.644;13.782;2024-01-30T13:18:03;10.77;;;6.05;;
79149;SDS011;68563;45.644;13.782;2024-01-30T13:20:30;9.60;;;5.97;;
79149;SDS011;68563;45.644;13.782;2024-01-30T13:22:55;11.25;;;6.57;;
79149;SDS011;68563;45.644;13.782;2024-01-30T13:25:21;10.98;;;6.93;;
79149;SDS011;68563;45.644;13.782;2024-01-30T13:27:46;13.88;;;7.03;;
79149;SDS011;68563;45.644;13.782;2024-01-30T13:30:11;10.82;;;6.57;;
79149;SDS011;68563;45.644;13.782;2024-01-30T13:32:37;14.15;;;7.28;;
79149;SDS011;68563;45.644;13.782;2024-01-30T13:35:03;11.65;;;6.90;;
79149;SDS011;68563;45.644;13.782;2024-01-30T13:37:28;12.15;;;7.13;;
79149;SDS011;68563;45.644;13.782;2024-01-30T13:39:54;12.93;;;6.80;;
79149;SDS011;68563;45.644;13.782;2024-01-30T13:42:21;12.40;;;7.15;;
79149;SDS011;68563;45.644;13.782;2024-01-30T13:44:46;10.25;;;6.50;;
79149;SDS011;68563;45.644;13.782;2024-01-30T13:47:12;12.27;;;6.47;;
79149;SDS011;68563;45.644;13.782;2024-01-30T13:49:37;11.07;;;6.47;;
79149;SDS011;68563;45.644;13.782;2024-01-30T13:52:03;11.05;;;6.47;;
79149;SDS011;68563;45.644;13.782;2024-01-30T13:54:28;9.85;;;6.68;;
79149;SDS011;68563;45.644;13.782;2024-01-30T13:56:54;11.57;;;6.65;;
79149;SDS011;68563;45.644;13.782;2024-01-30T13:59:19;9.63;;;6.07;;
79149;SDS011;68563;45.644;13.782;2024-01-30T14:01:50;14.43;;;7.55;;
79149;SDS011;68563;45.644;13.782;2024-01-30T14:04:16;12.25;;;7.55;;
79149;SDS011;68563;45.644;13.782;2024-01-30T14:06:41;15.02;;;7.65;;
79149;SDS011;68563;45.644;13.782;2024-01-30T14:09:07;11.13;;;6.90;;
79149;SDS011;68563;45.644;13.782;2024-01-30T14:11:32;14.80;;;7.55;;
79149;SDS011;68563;45.644;13.782;2024-01-30T14:13:58;12.35;;;7.13;;
79149;SDS011;68563;45.644;13.782;2024-01-30T14:16:24;11.23;;;7.40;;
79149;SDS011;68563;45.644;13.782;2024-01-30T14:18:49;13.82;;;7.38;;
79149;SDS011;68563;45.644;13.782;2024-01-30T14:21:15;11.25;;;7.03;;
79149;SDS011;68563;45.644;13.782;2024-01-30T14:23:41;15.85;;;8.05;;